Time;durP1;ratioP1;P1;durP2;ratioP2;P2;SDS_P1;SDS_P2;PMS_P1;PMS_P2;Temp;Humidity;BMP_temperature;BMP_pressure;BME280_temperature;BME280_humidity;BME280_pressure;Samples;Min_cycle;Max_cycle;Signal;HPM_P1;HPM_P2
2021/08/26 00:00:00;;;;;;;6.30;3.80;;;;;;;19.18;64.88;98429.94;5076018;28;20515;-95
2021/08/26 00:08:27;;;;;;;6.82;4.13;;;;;;;19.15;64.38;98406.75;5114116;27;20380;-94
2021/08/26 00:10:53;;;;;;;6.97;3.88;;;;;;;19.12;64.11;98398.88;5116039;28;20093;-94
2021/08/26 00:13:21;;;;;;;8.15;4.10;;;;;;;19.16;64.42;98410.31;5114663;28;20089;-95
2021/08/26 00:15:48;;;;;;;6.07;3.85;;;;;;;19.07;63.90;98390.25;5112468;28;20170;-95
2021/08/26 00:18:15;;;;;;;7.32;4.07;;;;;;;19.12;64.57;98403.41;5112327;28;20040;-95
2021/08/26 00:20:42;;;;;;;6.47;3.75;;;;;;;19.19;64.29;98429.84;5113100;28;20093;-95
2021/08/26 00:23:08;;;;;;;6.50;3.88;;;;;;;19.11;64.98;98421.41;5112380;28;20063;-95
2021/08/26 00:25:36;;;;;;;6.75;3.97;;;;;;;19.02;65.07;98420.19;5112120;28;20051;-95
2021/08/26 00:28:02;;;;;;;7.30;4.20;;;;;;;18.82;65.78;98402.69;5112295;28;20044;-95
2021/08/26 00:30:28;;;;;;;7.25;3.80;;;;;;;18.81;65.99;98421.63;5112017;28;20040;-95
2021/08/26 00:32:54;;;;;;;5.88;4.22;;;;;;;18.73;65.16;98405.94;5112874;28;20043;-93
2021/08/26 00:35:20;;;;;;;10.85;5.50;;;;;;;18.87;65.44;98432.88;5112051;28;20085;-95
2021/08/26 00:37:46;;;;;;;6.07;4.00;;;;;;;18.79;65.33;98423.56;5112414;28;20035;-94
2021/08/26 00:40:13;;;;;;;6.85;4.20;;;;;;;18.95;65.16;98424.25;5113138;28;20489;-95
2021/08/26 00:42:41;;;;;;;7.40;4.20;;;;;;;18.79;64.71;98394.78;5112092;28;20040;-96
2021/08/26 00:45:08;;;;;;;7.07;4.40;;;;;;;18.88;64.73;98407.63;5112231;28;20142;-95
2021/08/26 00:47:34;;;;;;;7.93;4.00;;;;;;;18.81;65.03;98403.63;5111541;28;20055;-95
2021/08/26 00:50:00;;;;;;;5.63;3.90;;;;;;;18.80;65.82;98409.09;5111701;28;20048;-95
2021/08/26 00:52:26;;;;;;;6.25;4.18;;;;;;;18.77;64.77;98406.59;5112987;28;20052;-95
2021/08/26 00:54:52;;;;;;;8.30;4.30;;;;;;;18.86;65.61;98423.03;5111713;28;20524;-94
2021/08/26 00:57:19;;;;;;;11.90;4.20;;;;;;;18.56;66.21;98404.34;5112043;28;20070;-95
2021/08/26 00:59:46;;;;;;;8.27;4.43;;;;;;;18.47;66.59;98407.66;5111746;28;20454;-96
2021/08/26 01:02:22;;;;;;;8.25;4.38;;;;;;;18.40;67.68;98411.72;5111804;28;20051;-95
2021/08/26 01:04:51;;;;;;;6.38;4.13;;;;;;;18.18;67.68;98405.00;5111971;28;20055;-96
2021/08/26 01:07:25;;;;;;;7.23;4.10;;;;;;;18.13;68.18;98414.34;5111626;28;20048;-95
2021/08/26 01:09:58;;;;;;;7.53;4.20;;;;;;;18.19;68.56;98433.63;5111617;28;20043;-96
2021/08/26 01:12:26;;;;;;;6.18;4.07;;;;;;;18.13;68.22;98430.47;5111759;28;20042;-96
2021/08/26 01:14:55;;;;;;;7.70;4.70;;;;;;;17.97;68.22;98418.00;5111070;28;20217;-95
2021/08/26 01:17:22;;;;;;;7.80;4.47;;;;;;;17.96;68.21;98413.59;5110957;28;20105;-95
2021/08/26 01:19:48;;;;;;;7.85;4.15;;;;;;;18.06;68.91;98440.75;5096861;28;20513;-95
2021/08/26 01:22:15;;;;;;;8.63;4.63;;;;;;;17.92;69.12;98420.13;5097406;28;20075;-95
2021/08/26 01:24:43;;;;;;;8.00;4.63;;;;;;;17.88;69.74;98415.03;5097549;28;20044;-96
2021/08/26 01:27:11;;;;;;;6.57;4.20;;;;;;;17.89;70.29;98427.50;5097279;28;20040;-96
2021/08/26 01:29:39;;;;;;;7.47;4.30;;;;;;;17.88;70.71;98439.25;5097287;28;20040;-96
2021/08/26 01:32:06;;;;;;;7.05;4.30;;;;;;;17.63;70.64;98408.44;5097644;28;20045;-95
2021/08/26 01:34:32;;;;;;;7.60;4.53;;;;;;;17.66;70.97;98424.41;5097887;28;20589;-95
2021/08/26 01:36:58;;;;;;;5.82;4.20;;;;;;;17.61;71.08;98429.19;5097680;28;20040;-95
2021/08/26 01:39:23;;;;;;;6.95;4.55;;;;;;;17.45;71.73;98419.34;5097313;28;20032;-96
2021/08/26 01:41:52;;;;;;;7.38;4.70;;;;;;;17.47;72.31;98439.91;5097264;28;20040;-95
2021/08/26 01:44:20;;;;;;;7.60;4.47;;;;;;;17.33;72.72;98430.88;5097185;28;20516;-95
2021/08/26 01:46:48;;;;;;;7.47;4.80;;;;;;;17.30;73.34;98436.41;5097421;28;20044;-96
2021/08/26 01:49:14;;;;;;;7.03;4.68;;;;;;;17.20;73.45;98435.25;5097551;28;20048;-96
2021/08/26 01:51:40;;;;;;;8.45;4.68;;;;;;;17.05;74.03;98420.91;5097110;28;20055;-95
2021/08/26 01:54:07;;;;;;;10.88;4.40;;;;;;;17.06;74.46;98427.13;5097127;28;20135;-94
2021/08/26 01:56:33;;;;;;;6.78;4.20;;;;;;;16.87;74.90;98409.41;5104117;28;20051;-95
2021/08/26 01:58:59;;;;;;;6.88;4.63;;;;;;;16.88;75.16;98421.88;5097350;28;20045;-94
2021/08/26 02:01:26;;;;;;;7.97;4.70;;;;;;;16.86;75.52;98422.94;5096558;28;20055;-95
2021/08/26 02:03:52;;;;;;;7.05;4.88;;;;;;;16.72;75.82;98418.31;5096889;28;20051;-95
2021/08/26 02:06:18;;;;;;;8.23;4.80;;;;;;;16.59;76.03;98410.09;5104447;27;20124;-95
2021/08/26 02:08:44;;;;;;;8.32;4.90;;;;;;;16.46;76.48;98391.16;5137878;27;20039;-95
2021/08/26 02:11:10;;;;;;;8.15;5.32;;;;;;;16.42;76.81;98395.84;5137796;27;20092;-95
2021/08/26 02:13:36;;;;;;;7.80;5.45;;;;;;;16.42;76.84;98384.25;5137471;27;20039;-94
2021/08/26 02:16:02;;;;;;;9.88;5.43;;;;;;;16.54;76.77;98402.31;5137286;27;20047;-95
2021/08/26 02:18:29;;;;;;;7.38;5.05;;;;;;;16.53;77.10;98418.53;5137529;27;20047;-94
2021/08/26 02:20:55;;;;;;;11.27;5.57;;;;;;;16.32;76.82;98388.38;5137456;27;20043;-96
2021/08/26 02:23:21;;;;;;;10.57;5.60;;;;;;;16.41;77.08;98388.72;5123409;27;20071;-94
2021/08/26 02:25:47;;;;;;;8.10;5.22;;;;;;;16.43;77.39;98389.50;5118223;28;20043;-94
2021/08/26 02:28:13;;;;;;;9.02;5.53;;;;;;;16.29;77.92;98378.69;5117926;28;20048;-95
2021/08/26 02:30:39;;;;;;;9.70;5.63;;;;;;;16.30;77.75;98375.06;5116686;28;20492;-94
2021/08/26 02:33:05;;;;;;;7.60;4.88;;;;;;;16.32;77.48;98370.47;5117099;28;20044;-94
2021/08/26 02:35:32;;;;;;;8.85;5.57;;;;;;;16.32;76.75;98356.19;5131302;27;20073;-94
2021/08/26 02:37:58;;;;;;;10.30;5.55;;;;;;;16.41;76.16;98359.19;5119243;28;20063;-94
2021/08/26 02:40:24;;;;;;;10.18;5.68;;;;;;;16.47;76.49;98373.25;5130146;27;20050;-95
2021/08/26 02:42:53;;;;;;;8.40;5.15;;;;;;;16.41;76.20;98356.50;5138093;27;20047;-93
2021/08/26 02:45:19;;;;;;;12.05;5.60;;;;;;;16.47;76.29;98357.13;5129011;27;20047;-94
2021/08/26 02:47:45;;;;;;;9.77;5.43;;;;;;;16.34;75.93;98327.47;5127867;27;20139;-95
2021/08/26 02:50:11;;;;;;;8.38;5.40;;;;;;;16.46;75.66;98347.34;5118520;28;20073;-94
2021/08/26 02:52:38;;;;;;;9.57;5.15;;;;;;;16.46;75.12;98333.91;5128789;27;20039;-94
2021/08/26 02:55:04;;;;;;;7.38;4.63;;;;;;;16.53;75.14;98335.31;5138375;27;20496;-94
2021/08/26 02:57:30;;;;;;;7.72;4.40;;;;;;;16.68;73.95;98345.16;5139482;27;20092;-95
2021/08/26 02:59:56;;;;;;;7.70;4.68;;;;;;;16.78;73.52;98346.31;5128213;27;20489;-94
2021/08/26 03:02:22;;;;;;;6.38;4.55;;;;;;;16.77;73.46;98338.38;5131113;27;20069;-95
2021/08/26 03:04:48;;;;;;;10.45;4.80;;;;;;;16.88;73.38;98361.94;5139871;27;20076;-95
2021/08/26 03:07:13;;;;;;;8.20;4.63;;;;;;;16.89;73.12;98364.50;5128998;27;20043;-94
2021/08/26 03:09:41;;;;;;;7.57;4.60;;;;;;;16.81;73.52;98359.63;5116729;28;20047;-96
2021/08/26 03:12:07;;;;;;;7.85;4.60;;;;;;;16.69;73.82;98335.28;5116557;28;20109;-95
2021/08/26 03:14:33;;;;;;;6.93;4.63;;;;;;;16.68;74.68;98358.56;5116380;28;20054;-96
2021/08/26 03:16:59;;;;;;;6.40;4.18;;;;;;;16.51;74.83;98347.97;5116773;28;20361;-96
2021/08/26 03:19:25;;;;;;;6.20;4.40;;;;;;;16.55;75.15;98365.63;5116489;28;20522;-95
2021/08/26 03:21:54;;;;;;;7.90;4.10;;;;;;;16.48;75.21;98359.75;5116791;28;20070;-96
2021/08/26 03:24:22;;;;;;;7.93;4.55;;;;;;;16.27;75.91;98363.66;5136145;27;20045;-95
2021/08/26 03:26:49;;;;;;;6.93;4.77;;;;;;;16.22;76.26;98383.56;5137313;27;20043;-95
2021/08/26 03:29:15;;;;;;;5.47;4.05;;;;;;;16.26;76.33;98400.31;5137202;27;20088;-94
2021/08/26 03:31:41;;;;;;;7.93;4.65;;;;;;;16.08;77.00;98385.28;5137748;27;20035;-95
2021/08/26 03:34:07;;;;;;;6.25;4.18;;;;;;;15.95;77.36;98380.56;5137486;27;20055;-95
2021/08/26 03:36:33;;;;;;;9.18;4.68;;;;;;;16.04;77.76;98407.84;5134755;27;20071;-95
2021/08/26 03:38:59;;;;;;;8.90;4.78;;;;;;;15.92;78.40;98402.22;5116086;28;20066;-95
2021/08/26 03:41:24;;;;;;;7.65;4.78;;;;;;;15.91;78.51;98410.34;5115694;28;20039;-95
2021/08/26 03:43:52;;;;;;;6.70;4.43;;;;;;;15.87;78.77;98411.44;5116305;28;20366;-94
2021/08/26 03:46:18;;;;;;;8.98;4.65;;;;;;;15.88;79.04;98410.50;5115727;28;20043;-95
2021/08/26 03:48:44;;;;;;;9.13;5.50;;;;;;;15.75;79.26;98400.44;5117109;28;20387;-95
2021/08/26 03:51:10;;;;;;;9.45;4.97;;;;;;;15.77;79.37;98403.06;5131007;27;20047;-95
2021/08/26 03:53:36;;;;;;;8.25;5.38;;;;;;;15.73;79.30;98396.97;5132659;27;20122;-94
2021/08/26 03:56:05;;;;;;;8.77;5.30;;;;;;;15.56;79.74;98372.88;5115685;28;20498;-95
2021/08/26 03:58:32;;;;;;;8.70;5.30;;;;;;;15.57;80.20;98396.03;5115713;28;20036;-95
2021/08/26 04:01:00;;;;;;;8.55;5.50;;;;;;;15.57;80.63;98406.75;5115796;28;20142;-96
2021/08/26 04:03:25;;;;;;;12.57;5.05;;;;;;;15.59;80.24;98399.50;5116277;28;20041;-96
2021/08/26 04:05:51;;;;;;;8.70;5.13;;;;;;;15.46;80.32;98385.00;5115092;27;20048;-96
2021/08/26 04:08:17;;;;;;;9.93;5.15;;;;;;;15.44;80.28;98384.22;5115170;28;20142;-96
2021/08/26 04:10:43;;;;;;;15.13;5.50;;;;;;;15.53;80.15;98399.84;5115256;28;20044;-96
2021/08/26 04:13:09;;;;;;;8.30;4.80;;;;;;;15.46;80.16;98393.94;5115281;28;20051;-96
2021/08/26 04:15:35;;;;;;;7.88;4.90;;;;;;;15.38;80.67;98385.44;5115309;28;20039;-95
2021/08/26 04:18:02;;;;;;;8.55;4.65;;;;;;;15.41;80.53;98404.00;5118444;28;20035;-95
2021/08/26 04:20:28;;;;;;;7.43;4.78;;;;;;;15.57;79.80;98417.47;5133619;28;20411;-95
2021/08/26 04:22:54;;;;;;;8.02;5.10;;;;;;;15.39;80.36;98401.41;5123070;28;20031;-94
2021/08/26 04:25:20;;;;;;;10.07;5.70;;;;;;;15.35;80.31;98377.53;5117434;28;20069;-94
2021/08/26 04:27:46;;;;;;;9.00;5.15;;;;;;;15.44;80.50;98390.47;5116301;28;20113;-94
2021/08/26 04:30:12;;;;;;;9.18;5.32;;;;;;;15.40;80.54;98388.91;5117573;28;20047;-94
2021/08/26 04:32:38;;;;;;;8.38;5.28;;;;;;;15.59;79.53;98415.56;5116966;28;20096;-94
2021/08/26 04:35:06;;;;;;;9.00;4.60;;;;;;;15.67;79.02;98413.34;5117912;28;20105;-96
2021/08/26 04:37:32;;;;;;;9.43;4.88;;;;;;;15.68;78.57;98404.38;5117443;28;20046;-93
2021/08/26 04:39:58;;;;;;;11.05;5.25;;;;;;;15.69;78.23;98403.41;5117398;28;20043;-94
2021/08/26 04:42:34;;;;;;;7.45;5.18;;;;;;;15.63;78.24;98384.97;5116633;28;20043;-94
2021/08/26 04:45:00;;;;;;;7.40;5.38;;;;;;;15.77;78.10;98403.06;5116920;28;20091;-93
2021/08/26 04:47:26;;;;;;;7.70;4.93;;;;;;;15.78;77.79;98400.25;5121074;28;20031;-94
2021/08/26 04:49:55;;;;;;;8.55;5.30;;;;;;;15.85;77.93;98426.75;5126456;28;20110;-93
2021/08/26 04:52:25;;;;;;;12.50;5.55;;;;;;;15.76;77.86;98407.53;5121211;28;20382;-95
2021/08/26 04:54:51;;;;;;;11.18;5.43;;;;;;;15.85;77.37;98408.84;5137248;27;20448;-94
2021/08/26 04:57:17;;;;;;;11.13;5.18;;;;;;;15.81;77.12;98394.75;5140977;27;20189;-95
2021/08/26 04:59:43;;;;;;;10.48;4.75;;;;;;;16.08;76.91;98436.22;5139464;27;20043;-95
2021/08/26 05:02:09;;;;;;;11.10;5.22;;;;;;;16.13;77.21;98437.69;5139651;27;20133;-95
2021/08/26 05:04:36;;;;;;;7.45;4.82;;;;;;;16.06;76.94;98422.91;5140017;27;20103;-95
2021/08/26 05:07:05;;;;;;;9.10;5.00;;;;;;;16.20;77.03;98440.94;5133858;27;20514;-92
2021/08/26 05:09:32;;;;;;;8.65;4.90;;;;;;;15.96;77.38;98405.56;5119403;28;20054;-94
2021/08/26 05:12:00;;;;;;;10.20;5.20;;;;;;;16.01;77.51;98406.19;5119528;28;20613;-95
2021/08/26 05:14:27;;;;;;;8.57;4.63;;;;;;;16.05;77.30;98402.41;5119209;28;20078;-95
2021/08/26 05:16:53;;;;;;;10.20;4.95;;;;;;;16.19;77.23;98423.09;5119368;28;20519;-95
2021/08/26 05:19:19;;;;;;;8.65;4.97;;;;;;;16.13;76.73;98413.56;5119744;28;20044;-95
2021/08/26 05:21:47;;;;;;;7.15;4.95;;;;;;;16.42;75.77;98424.50;5120051;28;20040;-94
2021/08/26 05:24:13;;;;;;;10.15;4.88;;;;;;;16.40;75.22;98392.38;5119917;28;20047;-95
2021/08/26 05:26:43;;;;;;;9.48;4.90;;;;;;;16.60;75.50;98411.84;5119955;28;20051;-95
2021/08/26 05:29:09;;;;;;;9.95;4.70;;;;;;;16.61;75.07;98405.50;5120942;27;20071;-95
2021/08/26 05:31:35;;;;;;;7.00;4.72;;;;;;;16.70;75.29;98409.47;5139055;27;20050;-95
2021/08/26 05:34:04;;;;;;;8.23;4.88;;;;;;;16.73;75.24;98412.84;5139202;27;20138;-96
2021/08/26 05:36:32;;;;;;;8.23;5.20;;;;;;;16.68;75.18;98385.44;5140694;27;20053;-95
2021/08/26 05:39:01;;;;;;;8.70;4.72;;;;;;;16.84;75.08;98406.91;5139361;27;20066;-94
2021/08/26 05:41:27;;;;;;;7.35;5.10;;;;;;;16.92;74.46;98401.94;5121469;28;20102;-95
2021/08/26 05:43:54;;;;;;;10.60;4.97;;;;;;;17.16;73.78;98406.84;5136574;27;20050;-94
2021/08/26 05:46:20;;;;;;;6.03;4.32;;;;;;;17.19;72.38;98372.56;5129681;27;20031;-94
2021/08/26 05:48:46;;;;;;;9.18;4.32;;;;;;;17.40;71.12;98370.41;5141394;27;20126;-93
2021/08/26 05:51:12;;;;;;;5.88;4.43;;;;;;;17.40;72.07;98378.47;5139937;27;20129;-95
2021/08/26 05:53:38;;;;;;;7.85;4.40;;;;;;;17.38;71.85;98380.38;5139709;27;20047;-95
2021/08/26 05:56:04;;;;;;;5.63;4.40;;;;;;;17.57;71.66;98398.94;5122258;27;20043;-94
2021/08/26 05:58:30;;;;;;;7.88;4.32;;;;;;;17.51;71.94;98376.94;5118613;28;20048;-96
2021/08/26 06:00:59;;;;;;;7.25;4.63;;;;;;;17.56;71.60;98378.38;5119454;28;20040;-95
2021/08/26 06:03:25;;;;;;;11.45;4.90;;;;;;;17.66;71.99;98384.06;5120350;28;20051;-94
2021/08/26 06:05:50;;;;;;;10.68;5.20;;;;;;;17.41;72.39;98396.34;5119046;27;20108;-95
2021/08/26 06:08:16;;;;;;;11.95;5.35;;;;;;;17.25;73.39;98390.16;5119277;28;20078;-94
2021/08/26 06:10:42;;;;;;;8.38;5.20;;;;;;;17.17;73.49;98381.69;5118363;28;20044;-94
2021/08/26 06:13:08;;;;;;;11.65;5.68;;;;;;;17.28;72.73;98368.44;5121792;27;20050;-93
2021/08/26 06:15:34;;;;;;;13.40;5.60;;;;;;;17.57;72.22;98379.25;5139050;27;20039;-94
2021/08/26 06:18:02;;;;;;;9.75;4.70;;;;;;;17.70;72.21;98368.63;5118622;27;20038;-95
2021/08/26 06:20:28;;;;;;;10.38;5.60;;;;;;;17.98;70.49;98373.16;5117956;28;20075;-95
2021/08/26 06:22:56;;;;;;;9.85;5.18;;;;;;;18.24;68.92;98366.94;5121611;28;20396;-94
2021/08/26 06:25:22;;;;;;;9.15;5.13;;;;;;;18.26;68.49;98351.56;5140749;27;20518;-94
2021/08/26 06:27:48;;;;;;;9.52;5.38;;;;;;;18.42;68.34;98361.31;5142230;27;20043;-94
2021/08/26 06:30:14;;;;;;;7.72;5.13;;;;;;;18.34;68.22;98355.56;5138158;27;20392;-94
2021/08/26 06:32:40;;;;;;;7.95;4.78;;;;;;;18.53;67.41;98339.94;5122256;28;20105;-95
2021/08/26 06:35:08;;;;;;;6.95;4.63;;;;;;;18.88;65.88;98334.91;5120285;28;20036;-94
2021/08/26 06:37:34;;;;;;;6.97;4.40;;;;;;;19.21;64.62;98340.78;5126027;27;20096;-95
2021/08/26 06:40:00;;;;;;;8.20;4.38;;;;;;;19.59;63.70;98348.03;5131591;27;20035;-91
2021/08/26 06:42:26;;;;;;;6.05;4.13;;;;;;;19.86;61.43;98356.91;5125558;27;20534;-90
2021/08/26 06:44:52;;;;;;;7.18;4.35;;;;;;;20.00;61.72;98352.34;5127165;27;20891;-91
2021/08/26 06:47:19;;;;;;;10.88;5.15;;;;;;;19.97;61.81;98333.66;5127337;27;20039;-93
2021/08/26 06:49:44;;;;;;;8.98;5.00;;;;;;;19.86;62.76;98356.00;5128874;27;20043;-95
2021/08/26 06:52:12;;;;;;;8.45;4.82;;;;;;;20.03;62.52;98331.34;5124253;27;20488;-93
2021/08/26 06:54:37;;;;;;;9.20;4.68;;;;;;;20.35;60.59;98346.19;5115930;28;20484;-93
2021/08/26 06:57:05;;;;;;;11.85;6.25;;;;;;;20.24;61.67;98355.94;5117862;27;20040;-94
2021/08/26 06:59:31;;;;;;;7.07;4.70;;;;;;;20.42;60.84;98333.94;5130315;27;20043;-94
2021/08/26 07:01:56;;;;;;;7.82;4.60;;;;;;;20.33;60.75;98334.63;5122248;27;20035;-93
2021/08/26 07:04:22;;;;;;;6.93;4.68;;;;;;;20.55;60.33;98345.56;5127430;27;20043;-93
2021/08/26 07:06:51;;;;;;;7.97;4.80;;;;;;;20.54;61.33;98341.16;5122548;27;20044;-94
2021/08/26 07:09:19;;;;;;;8.07;4.53;;;;;;;20.58;60.21;98326.47;5126561;27;20057;-94
2021/08/26 07:11:44;;;;;;;8.27;4.25;;;;;;;20.76;59.00;98328.75;5128649;27;20039;-93
2021/08/26 07:14:12;;;;;;;7.38;4.40;;;;;;;20.84;59.12;98329.00;5124081;27;20069;-93
2021/08/26 07:16:38;;;;;;;11.35;4.65;;;;;;;21.00;58.40;98337.69;5122513;27;20039;-94
2021/08/26 07:19:04;;;;;;;9.07;5.00;;;;;;;21.09;57.93;98323.44;5127629;27;20508;-94
2021/08/26 07:21:30;;;;;;;9.50;4.70;;;;;;;21.29;57.45;98327.31;5129821;27;20121;-93
2021/08/26 07:23:56;;;;;;;8.65;4.80;;;;;;;20.58;59.30;98334.56;5118095;28;20098;-95
2021/08/26 07:26:23;;;;;;;9.68;4.85;;;;;;;20.61;58.96;98328.06;5131241;27;20087;-94
2021/08/26 07:28:51;;;;;;;8.45;5.05;;;;;;;20.62;59.80;98327.94;5124545;27;20035;-92
2021/08/26 07:31:17;;;;;;;8.30;5.18;;;;;;;20.82;59.22;98339.06;5113402;28;20381;-94
2021/08/26 07:33:43;;;;;;;9.55;5.38;;;;;;;20.75;59.87;98325.16;5115215;28;20112;-94
2021/08/26 07:36:09;;;;;;;10.07;5.43;;;;;;;21.03;58.98;98328.47;5112663;28;20130;-93
2021/08/26 07:38:35;;;;;;;8.18;4.85;;;;;;;21.56;57.96;98334.28;5113183;28;20035;-92
2021/08/26 07:41:01;;;;;;;8.60;5.30;;;;;;;21.54;57.46;98323.56;5115759;28;20553;-94
2021/08/26 07:43:31;;;;;;;8.40;5.00;;;;;;;21.46;57.80;98306.22;5114881;28;20040;-92
2021/08/26 07:45:57;;;;;;;8.80;4.78;;;;;;;22.08;56.80;98331.94;5113540;28;20040;-93
2021/08/26 07:48:23;;;;;;;11.57;5.57;;;;;;;22.36;55.41;98303.50;5115199;28;20047;-94
2021/08/26 07:50:49;;;;;;;10.18;6.20;;;;;;;22.06;55.90;98323.09;5115178;28;20059;-94
2021/08/26 07:53:15;;;;;;;9.98;5.50;;;;;;;21.81;56.43;98316.94;5115568;28;20039;-95
2021/08/26 07:55:41;;;;;;;11.68;6.10;;;;;;;22.19;55.70;98314.81;5115298;28;20416;-93
2021/08/26 07:58:07;;;;;;;8.93;5.25;;;;;;;22.34;55.76;98321.72;5122959;27;20035;-93
2021/08/26 08:00:34;;;;;;;8.57;5.53;;;;;;;22.63;54.94;98318.44;5114201;28;20544;-93
2021/08/26 08:03:00;;;;;;;10.20;5.10;;;;;;;23.00;54.34;98316.19;5109384;28;20055;-92
2021/08/26 08:05:26;;;;;;;9.82;5.78;;;;;;;23.25;53.28;98305.94;5114234;28;20112;-93
2021/08/26 08:07:51;;;;;;;9.60;5.60;;;;;;;23.58;51.15;98302.16;5114851;28;20050;-94
2021/08/26 08:10:36;;;;;;;9.50;5.00;;;;;;;23.91;50.63;98313.75;5113918;28;20050;-92
2021/08/26 08:13:20;;;;;;;8.02;4.63;;;;;;;24.10;51.08;98315.69;5114364;28;20057;-94
2021/08/26 08:15:48;;;;;;;8.05;4.80;;;;;;;24.22;50.31;98306.41;5113902;28;20460;-95
2021/08/26 08:18:14;;;;;;;12.60;4.90;;;;;;;24.30;50.13;98295.72;5114422;28;20047;-94
2021/08/26 08:20:41;;;;;;;10.93;4.90;;;;;;;24.33;49.49;98302.72;5114581;28;20497;-95
2021/08/26 08:23:08;;;;;;;7.30;4.82;;;;;;;24.32;49.87;98309.16;5114253;28;20078;-94
2021/08/26 08:25:34;;;;;;;10.07;4.90;;;;;;;24.31;49.88;98302.00;5114781;28;20522;-94
2021/08/26 08:28:00;;;;;;;11.50;4.90;;;;;;;24.19;50.51;98318.41;5114570;28;20036;-94
2021/08/26 08:30:26;;;;;;;9.63;4.68;;;;;;;24.29;49.83;98299.44;5117864;28;20051;-93
2021/08/26 08:32:54;;;;;;;7.97;4.57;;;;;;;24.58;49.20;98299.50;5118388;28;20071;-95
2021/08/26 08:35:21;;;;;;;7.17;4.67;;;;;;;24.95;49.31;98316.97;5100012;28;20040;-94
2021/08/26 08:37:48;;;;;;;8.05;4.32;;;;;;;25.15;48.08;98324.13;5114491;27;20118;-94
2021/08/26 08:40:14;;;;;;;9.75;4.50;;;;;;;25.31;47.16;98312.69;5135010;27;20484;-92
2021/08/26 08:42:40;;;;;;;6.63;4.70;;;;;;;25.43;47.17;98294.31;5129604;27;20119;-93
2021/08/26 08:45:07;;;;;;;6.35;4.38;;;;;;;25.54;46.97;98298.72;5124509;27;20118;-95
2021/08/26 08:47:36;;;;;;;8.10;4.93;;;;;;;25.78;46.46;98312.69;5123938;27;20046;-93
2021/08/26 08:50:05;;;;;;;7.65;5.43;;;;;;;25.58;46.07;98292.84;5131427;27;20039;-93
2021/08/26 08:52:35;;;;;;;9.95;5.10;;;;;;;25.74;47.13;98304.97;5123150;27;20046;-94
2021/08/26 08:55:01;;;;;;;10.57;5.28;;;;;;;25.77;46.73;98299.22;5125666;27;20111;-94
2021/08/26 08:57:27;;;;;;;10.13;5.20;;;;;;;25.73;46.59;98284.19;5127373;27;20488;-93
2021/08/26 08:59:54;;;;;;;8.25;5.00;;;;;;;25.81;46.94;98295.22;5133225;27;20043;-92
2021/08/26 09:02:20;;;;;;;8.02;4.78;;;;;;;25.85;47.29;98291.19;5126241;27;20036;-94
2021/08/26 09:04:57;;;;;;;8.70;5.20;;;;;;;25.96;46.64;98277.38;5120701;27;20047;-95
2021/08/26 09:07:25;;;;;;;7.75;5.20;;;;;;;26.23;46.21;98292.84;5114423;28;20443;-94
2021/08/26 09:09:52;;;;;;;8.57;4.55;;;;;;;26.30;45.18;98282.19;5119369;27;20039;-93
2021/08/26 09:12:18;;;;;;;9.35;4.95;;;;;;;26.40;45.56;98288.44;5127112;27;20040;-93
2021/08/26 09:14:44;;;;;;;9.80;5.40;;;;;;;26.48;44.83;98282.25;5126375;27;20075;-94
2021/08/26 09:17:17;;;;;;;6.70;4.93;;;;;;;26.53;45.75;98279.91;5129748;27;20062;-92
2021/08/26 09:19:44;;;;;;;9.02;5.60;;;;;;;26.19;45.76;98283.25;5122468;27;20496;-94
2021/08/26 09:22:21;;;;;;;6.75;4.75;;;;;;;25.89;45.77;98280.84;5119178;27;20523;-95
2021/08/26 09:24:52;;;;;;;6.72;4.97;;;;;;;25.54;47.45;98282.41;5122040;27;20802;-93
2021/08/26 09:27:38;;;;;;;9.38;4.80;;;;;;;25.99;46.68;98301.59;5131672;27;20039;-94
2021/08/26 09:30:05;;;;;;;8.32;4.68;;;;;;;26.29;45.26;98277.78;5120328;27;20292;-93
2021/08/26 09:32:36;;;;;;;7.47;4.47;;;;;;;26.67;44.36;98281.25;5129211;27;20503;-93
2021/08/26 09:35:25;;;;;;;11.98;5.30;;;;;;;26.37;44.06;98282.44;5126896;27;20063;-94
2021/08/26 09:37:53;;;;;;;8.05;4.57;;;;;;;26.57;44.12;98284.06;5117804;27;20038;-94
2021/08/26 09:40:23;;;;;;;7.75;4.32;;;;;;;26.87;43.13;98290.16;5121256;27;20127;-92
2021/08/26 09:42:56;;;;;;;7.10;4.90;;;;;;;27.06;42.99;98283.66;5123167;27;20066;-93
2021/08/26 09:45:46;;;;;;;8.35;4.85;;;;;;;27.35;42.97;98288.88;5122450;27;20520;-92
2021/08/26 09:48:13;;;;;;;8.75;4.70;;;;;;;27.37;42.69;98291.41;5129459;27;20488;-92
2021/08/26 09:50:45;;;;;;;8.00;4.07;;;;;;;27.41;40.26;98273.69;5126182;27;20089;-91
2021/08/26 09:53:12;;;;;;;6.75;4.28;;;;;;;27.49;40.32;98271.03;5124291;27;20130;-94
2021/08/26 09:56:01;;;;;;;6.93;3.67;;;;;;;27.34;39.65;98280.81;5123765;27;20434;-93
2021/08/26 09:58:28;;;;;;;5.97;4.07;;;;;;;27.34;39.71;98265.28;5114634;27;20093;-93
2021/08/26 10:01:06;;;;;;;6.70;4.00;;;;;;;27.40;37.75;98272.00;5117529;28;20063;-93
2021/08/26 10:03:33;;;;;;;7.45;3.83;;;;;;;27.56;37.49;98273.97;5122937;27;20039;-93
2021/08/26 10:05:59;;;;;;;7.38;3.65;;;;;;;27.76;37.16;98263.66;5119573;27;20575;-93
2021/08/26 10:08:26;;;;;;;7.80;3.70;;;;;;;27.90;35.93;98265.81;5121402;27;20039;-92
2021/08/26 10:10:53;;;;;;;9.10;4.68;;;;;;;27.84;37.43;98261.81;5126020;27;20496;-92
2021/08/26 10:13:20;;;;;;;7.50;4.63;;;;;;;28.01;38.01;98268.25;5120913;27;20043;-91
2021/08/26 10:15:46;;;;;;;8.50;4.60;;;;;;;27.91;37.92;98245.69;5131149;27;20035;-93
2021/08/26 10:18:15;;;;;;;6.80;4.22;;;;;;;27.97;37.92;98260.53;5130391;27;20388;-92
2021/08/26 10:20:41;;;;;;;8.57;4.13;;;;;;;27.83;37.69;98253.81;5132586;27;20390;-93
2021/08/26 10:23:10;;;;;;;7.45;4.40;;;;;;;28.02;36.10;98248.09;5124261;27;20040;-92
2021/08/26 10:25:38;;;;;;;6.65;3.78;;;;;;;28.11;36.39;98250.88;5126449;27;20442;-92
2021/08/26 10:28:06;;;;;;;6.53;4.18;;;;;;;27.92;37.24;98246.53;5127211;27;20118;-93
2021/08/26 10:30:36;;;;;;;6.65;3.75;;;;;;;27.95;37.48;98252.50;5123744;27;20035;-91
2021/08/26 10:33:06;;;;;;;7.35;4.20;;;;;;;27.59;37.30;98255.38;5128797;27;20043;-92
2021/08/26 10:35:32;;;;;;;6.63;4.28;;;;;;;27.15;37.42;98247.25;5121729;27;20035;-93
2021/08/26 10:37:58;;;;;;;8.55;4.20;;;;;;;27.32;37.12;98245.47;5126276;27;20127;-92
2021/08/26 10:40:32;;;;;;;8.05;3.60;;;;;;;26.74;35.46;98260.53;5123796;27;20555;-92
2021/08/26 10:42:58;;;;;;;5.75;3.40;;;;;;;27.20;35.72;98261.25;5120844;27;20034;-92
2021/08/26 10:48:25;;;;;;;5.65;3.47;;;;;;;27.92;35.45;98236.44;5104563;27;20375;-91
2021/08/26 10:54:27;;;;;;;4.85;3.40;;;;;;;27.59;34.12;98225.34;5112428;27;20372;-91
2021/08/26 10:56:54;;;;;;;5.43;3.20;;;;;;;27.70;35.65;98215.16;5112175;28;20036;-92
2021/08/26 10:59:27;;;;;;;5.50;3.40;;;;;;;28.02;34.62;98214.47;5112456;28;20523;-93
2021/08/26 11:01:57;;;;;;;4.78;3.08;;;;;;;28.15;32.11;98219.41;5111250;28;20070;-91
2021/08/26 11:07:31;;;;;;;4.35;2.90;;;;;;;28.68;31.93;98208.09;5103916;27;20382;-90
2021/08/26 11:10:24;;;;;;;4.50;2.92;;;;;;;28.84;32.14;98220.94;5068110;28;20095;-91
2021/08/26 11:12:51;;;;;;;5.35;3.10;;;;;;;28.95;31.70;98218.88;5071016;28;20045;-90
2021/08/26 11:15:25;;;;;;;5.53;3.30;;;;;;;28.85;32.34;98198.00;5069876;28;20028;-90
2021/08/26 11:17:51;;;;;;;5.38;3.20;;;;;;;28.97;31.90;98203.97;5071041;28;20039;-92
2021/08/26 11:20:31;;;;;;;5.10;3.22;;;;;;;28.58;32.04;98206.53;5069000;28;20033;-95
2021/08/26 11:23:09;;;;;;;5.13;3.30;;;;;;;28.68;31.10;98197.16;5070172;28;20137;-92
2021/08/26 11:25:35;;;;;;;5.85;3.10;;;;;;;28.93;31.04;98196.28;5070905;28;20123;-92
2021/08/26 11:28:26;;;;;;;5.65;3.20;;;;;;;28.83;32.70;98193.75;5070939;28;20057;-92
2021/08/26 11:30:52;;;;;;;6.97;3.20;;;;;;;28.98;31.38;98178.31;5068590;28;20037;-91
2021/08/26 11:33:26;;;;;;;5.65;3.20;;;;;;;29.07;31.75;98187.38;5070942;28;20528;-92
2021/08/26 11:35:51;;;;;;;5.60;2.92;;;;;;;29.16;32.82;98183.63;5071273;28;20039;-93
2021/08/26 11:38:18;;;;;;;4.90;3.00;;;;;;;29.06;30.78;98180.19;5071156;28;20140;-92
2021/08/26 11:40:45;;;;;;;8.10;3.30;;;;;;;28.47;29.86;98183.97;5071906;28;20494;-92
2021/08/26 11:43:13;;;;;;;4.70;3.10;;;;;;;28.45;29.65;98177.81;5071537;28;20068;-92
2021/08/26 11:45:40;;;;;;;5.10;2.90;;;;;;;28.36;30.79;98173.31;5064279;28;20128;-93
2021/08/26 11:48:06;;;;;;;4.57;2.80;;;;;;;28.08;29.30;98174.66;5071686;28;20086;-92